Check out our new PWSWeather beta!
PWSweather.com
Personal Weather Stations
Station Observations
KIMITO
Ängskulla, KimitoFI 25700

ÄngskullaKimitoFI 25700

Lat: 60.174645, Lon: 22.726327

Elevation: 36

Station Type: Davis Vantage VUE

Latest ConditionsUpdated 2:33:45 PM GMT+02:02 Thursday, Feb 27, 2020
Currently Today's Max Today's Min Today's Average
Temperature 31.6°F-0.2°C 31.6°F-0.2°C 19.7°F-6.8°C 24.8°F-4.0°C
Dew Point 11.6°F-11.3°C 17.1°F-8.3°C 11.1°F-11.6°C 14.1°F-9.9°C
Winds 6.9 mph E11.1 kmh E 10.3 mph -16.6 kmh - - 3.4 mph 5.5 kmh
Wind Gusts 6.9 mph11.1 kmh 18.4 mph29.6 kmh - -
Humidity 43% 77% 42% 64%
Pressure 29.48 in998.3 mb 29.48 in998.3 mb 29.42 in996.3 mb -
Hour Temp Dew Point Humidity Winds Wind Gusts Pressure Precip Precip Rate Daily Precip Total
02:33 PM 31.6°F-0.2°C 11.6°F-11.3°C 43% 6.9 mph E11.1 kmh E 6.9 mph11.1 kmh 29.48 in998.3 mb - 0.00 in0.0 mm 0.00 in0.0 mm
02:28 PM 31.6°F-0.2°C 11.6°F-11.3°C 43% 3.4 mph SE5.5 kmh SE 11.5 mph18.5 kmh 29.48 in998.3 mb - 0.00 in0.0 mm 0.00 in0.0 mm
02:22 PM 31.5°F-0.3°C 11.5°F-11.4°C 43% 4.6 mph E7.4 kmh E 8.0 mph12.9 kmh 29.48 in998.3 mb - 0.00 in0.0 mm 0.00 in0.0 mm
02:16 PM 31.6°F-0.2°C 11.1°F-11.6°C 42% 4.6 mph E7.4 kmh E 11.5 mph18.5 kmh 29.48 in998.3 mb - 0.00 in0.0 mm 0.00 in0.0 mm
02:11 PM 31.6°F-0.2°C 12.2°F-11.0°C 44% 3.4 mph E5.5 kmh E 6.9 mph11.1 kmh 29.48 in998.3 mb - 0.00 in0.0 mm 0.00 in0.0 mm
02:05 PM 31.3°F-0.4°C 11.9°F-11.2°C 44% 4.6 mph E7.4 kmh E 8.0 mph12.9 kmh 29.48 in998.3 mb - 0.00 in0.0 mm 0.00 in0.0 mm
02:00 PM 31.3°F-0.4°C 11.4°F-11.4°C 43% 5.8 mph E9.3 kmh E 11.5 mph18.5 kmh 29.48 in998.3 mb - 0.00 in0.0 mm 0.00 in0.0 mm
01:54 PM 31.3°F-0.4°C 11.3°F-11.5°C 43% 2.3 mph SE3.7 kmh SE 3.4 mph5.5 kmh 29.48 in998.3 mb - 0.00 in0.0 mm 0.00 in0.0 mm
01:48 PM 31.2°F-0.4°C 11.3°F-11.5°C 43% 4.6 mph ESE7.4 kmh ESE 8.0 mph12.9 kmh 29.47 in998.0 mb - 0.00 in0.0 mm 0.00 in0.0 mm
01:43 PM 31.2°F-0.4°C 11.3°F-11.5°C 43% 6.9 mph SE11.1 kmh SE 11.5 mph18.5 kmh 29.47 in998.0 mb - 0.00 in0.0 mm 0.00 in0.0 mm
01:37 PM 31.3°F-0.4°C 11.9°F-11.2°C 44% 6.9 mph E11.1 kmh E 11.5 mph18.5 kmh 29.47 in998.0 mb - 0.00 in0.0 mm 0.00 in0.0 mm
01:31 PM 31.1°F-0.5°C 12.7°F-10.7°C 46% 3.4 mph ESE5.5 kmh ESE 8.0 mph12.9 kmh 29.47 in998.0 mb - 0.00 in0.0 mm 0.00 in0.0 mm
01:26 PM 31.0°F-0.6°C 13.1°F-10.5°C 47% 4.6 mph E7.4 kmh E 8.0 mph12.9 kmh 29.47 in998.0 mb - 0.00 in0.0 mm 0.00 in0.0 mm
01:20 PM 30.9°F-0.6°C 13.5°F-10.3°C 48% 4.6 mph ENE7.4 kmh ENE 11.5 mph18.5 kmh 29.47 in998.0 mb - 0.00 in0.0 mm 0.00 in0.0 mm
01:15 PM 30.6°F-0.8°C 13.2°F-10.4°C 48% 3.4 mph NNE5.5 kmh NNE 6.9 mph11.1 kmh 29.47 in998.0 mb - 0.00 in0.0 mm 0.00 in0.0 mm
01:09 PM 30.4°F-0.9°C 13.0°F-10.6°C 48% 4.6 mph ESE7.4 kmh ESE 6.9 mph11.1 kmh 29.47 in998.0 mb - 0.00 in0.0 mm 0.00 in0.0 mm
01:03 PM 30.4°F-0.9°C 12.5°F-10.8°C 47% 3.4 mph E5.5 kmh E 6.9 mph11.1 kmh 29.48 in998.3 mb - 0.00 in0.0 mm 0.00 in0.0 mm
12:58 PM 30.2°F-1.0°C 12.4°F-10.9°C 47% 8.0 mph ENE12.9 kmh ENE 11.5 mph18.5 kmh 29.48 in998.3 mb - 0.00 in0.0 mm 0.00 in0.0 mm
12:52 PM 30.4°F-0.9°C 13.0°F-10.6°C 48% 10.3 mph ENE16.6 kmh ENE 13.8 mph22.2 kmh 29.48 in998.3 mb - 0.00 in0.0 mm 0.00 in0.0 mm
12:46 PM 30.5°F-0.8°C 13.1°F-10.5°C 48% 4.6 mph E7.4 kmh E 9.2 mph14.8 kmh 29.47 in998.0 mb - 0.00 in0.0 mm 0.00 in0.0 mm
12:41 PM 30.6°F-0.8°C 13.2°F-10.4°C 48% 3.4 mph E5.5 kmh E 5.8 mph9.3 kmh 29.48 in998.3 mb - 0.00 in0.0 mm 0.00 in0.0 mm
12:35 PM 30.3°F-0.9°C 12.9°F-10.6°C 48% 4.6 mph ENE7.4 kmh ENE 8.0 mph12.9 kmh 29.48 in998.3 mb - 0.00 in0.0 mm 0.00 in0.0 mm
12:30 PM 30.4°F-0.9°C 12.0°F-11.1°C 46% 6.9 mph ENE11.1 kmh ENE 16.1 mph25.9 kmh 29.48 in998.3 mb - 0.00 in0.0 mm 0.00 in0.0 mm
12:24 PM 30.1°F-1.1°C 11.8°F-11.2°C 46% 6.9 mph SE11.1 kmh SE 10.3 mph16.6 kmh 29.48 in998.3 mb - 0.00 in0.0 mm 0.00 in0.0 mm
12:18 PM 30.2°F-1.0°C 12.4°F-10.9°C 47% 8.0 mph SE12.9 kmh SE 14.9 mph24.0 kmh 29.48 in998.3 mb - 0.00 in0.0 mm 0.00 in0.0 mm
12:13 PM 30.2°F-1.0°C 13.3°F-10.4°C 49% 5.8 mph NE9.3 kmh NE 18.4 mph29.6 kmh 29.48 in998.3 mb - 0.00 in0.0 mm 0.00 in0.0 mm
12:07 PM 30.1°F-1.1°C 12.7°F-10.7°C 48% 5.8 mph SE9.3 kmh SE 6.9 mph11.1 kmh 29.48 in998.3 mb - 0.00 in0.0 mm 0.00 in0.0 mm
12:01 PM 30.0°F-1.1°C 12.7°F-10.7°C 48% 5.8 mph SE9.3 kmh SE 8.0 mph12.9 kmh 29.48 in998.3 mb - 0.00 in0.0 mm 0.00 in0.0 mm
11:56 AM 30.0°F-1.1°C 13.1°F-10.5°C 49% 8.0 mph E12.9 kmh E 11.5 mph18.5 kmh 29.48 in998.3 mb - 0.00 in0.0 mm 0.00 in0.0 mm
11:50 AM 30.0°F-1.1°C 13.1°F-10.5°C 49% 5.8 mph ENE9.3 kmh ENE 11.5 mph18.5 kmh 29.48 in998.3 mb - 0.00 in0.0 mm 0.00 in0.0 mm
11:45 AM 30.1°F-1.1°C 13.7°F-10.2°C 50% 5.8 mph E9.3 kmh E 11.5 mph18.5 kmh 29.48 in998.3 mb - 0.00 in0.0 mm 0.00 in0.0 mm
11:39 AM 29.8°F-1.2°C 15.1°F-9.4°C 54% 1.1 mph E1.8 kmh E 5.8 mph9.3 kmh 29.48 in998.3 mb - 0.00 in0.0 mm 0.00 in0.0 mm
11:33 AM 29.6°F-1.3°C 14.5°F-9.7°C 53% 3.4 mph E5.5 kmh E 4.6 mph7.4 kmh 29.48 in998.3 mb - 0.00 in0.0 mm 0.00 in0.0 mm
11:28 AM 29.1°F-1.6°C 14.1°F-9.9°C 53% 4.6 mph ENE7.4 kmh ENE 10.3 mph16.6 kmh 29.48 in998.3 mb - 0.00 in0.0 mm 0.00 in0.0 mm
11:22 AM 29.1°F-1.6°C 13.6°F-10.2°C 52% 4.6 mph ESE7.4 kmh ESE 9.2 mph14.8 kmh 29.48 in998.3 mb - 0.00 in0.0 mm 0.00 in0.0 mm
11:16 AM 28.6°F-1.9°C 14.4°F-9.8°C 55% 4.6 mph E7.4 kmh E 11.5 mph18.5 kmh 29.48 in998.3 mb - 0.00 in0.0 mm 0.00 in0.0 mm
11:11 AM 28.5°F-1.9°C 14.4°F-9.8°C 55% 4.6 mph E7.4 kmh E 6.9 mph11.1 kmh 29.48 in998.3 mb - 0.00 in0.0 mm 0.00 in0.0 mm
11:05 AM 28.0°F-2.2°C 14.7°F-9.6°C 57% 4.6 mph E7.4 kmh E 8.0 mph12.9 kmh 29.48 in998.3 mb - 0.00 in0.0 mm 0.00 in0.0 mm
11:00 AM 27.9°F-2.3°C 14.2°F-9.9°C 56% 5.8 mph E9.3 kmh E 10.3 mph16.6 kmh 29.48 in998.3 mb - 0.00 in0.0 mm 0.00 in0.0 mm
10:54 AM 27.3°F-2.6°C 14.9°F-9.5°C 59% 4.6 mph E7.4 kmh E 8.0 mph12.9 kmh 29.48 in998.3 mb - 0.00 in0.0 mm 0.00 in0.0 mm
10:48 AM 27.1°F-2.7°C 15.4°F-9.2°C 61% 3.4 mph ENE5.5 kmh ENE 11.5 mph18.5 kmh 29.48 in998.3 mb - 0.00 in0.0 mm 0.00 in0.0 mm
10:43 AM 26.6°F-3.0°C 15.0°F-9.4°C 61% 5.8 mph E9.3 kmh E 10.3 mph16.6 kmh 29.48 in998.3 mb - 0.00 in0.0 mm 0.00 in0.0 mm
10:37 AM 26.4°F-3.1°C 15.2°F-9.3°C 62% 4.6 mph NE7.4 kmh NE 8.0 mph12.9 kmh 29.48 in998.3 mb - 0.00 in0.0 mm 0.00 in0.0 mm
10:31 AM 26.1°F-3.3°C 14.5°F-9.7°C 61% 5.8 mph ENE9.3 kmh ENE 8.0 mph12.9 kmh 29.48 in998.3 mb - 0.00 in0.0 mm 0.00 in0.0 mm
10:26 AM 26.0°F-3.3°C 15.1°F-9.4°C 63% 4.6 mph E7.4 kmh E 11.5 mph18.5 kmh 29.48 in998.3 mb - 0.00 in0.0 mm 0.00 in0.0 mm
10:20 AM 25.7°F-3.5°C 14.8°F-9.6°C 63% 2.3 mph NNE3.7 kmh NNE 6.9 mph11.1 kmh 29.48 in998.3 mb - 0.00 in0.0 mm 0.00 in0.0 mm
10:15 AM 25.6°F-3.6°C 15.1°F-9.4°C 64% 5.8 mph NE9.3 kmh NE 10.3 mph16.6 kmh 29.48 in998.3 mb - 0.00 in0.0 mm 0.00 in0.0 mm
10:09 AM 25.1°F-3.8°C 14.6°F-9.7°C 64% 4.6 mph E7.4 kmh E 4.6 mph7.4 kmh 29.48 in998.3 mb - 0.00 in0.0 mm 0.00 in0.0 mm
10:03 AM 25.0°F-3.9°C 14.5°F-9.7°C 64% 3.4 mph ENE5.5 kmh ENE 8.0 mph12.9 kmh 29.48 in998.3 mb - 0.00 in0.0 mm 0.00 in0.0 mm
09:58 AM 24.7°F-4.1°C 14.6°F-9.7°C 65% 4.6 mph ENE7.4 kmh ENE 6.9 mph11.1 kmh 29.48 in998.3 mb - 0.00 in0.0 mm 0.00 in0.0 mm
09:52 AM 24.4°F-4.2°C 14.3°F-9.8°C 65% 2.3 mph E3.7 kmh E 3.4 mph5.5 kmh 29.48 in998.3 mb - 0.00 in0.0 mm 0.00 in0.0 mm
09:46 AM 24.1°F-4.4°C 14.0°F-10.0°C 65% 6.9 mph ENE11.1 kmh ENE 11.5 mph18.5 kmh 29.48 in998.3 mb - 0.00 in0.0 mm 0.00 in0.0 mm
09:41 AM 24.0°F-4.4°C 13.9°F-10.1°C 65% 4.6 mph ENE7.4 kmh ENE 5.8 mph9.3 kmh 29.48 in998.3 mb - 0.00 in0.0 mm 0.00 in0.0 mm
09:35 AM 23.9°F-4.5°C 14.2°F-9.9°C 66% 4.6 mph E7.4 kmh E 9.2 mph14.8 kmh 29.48 in998.3 mb - 0.00 in0.0 mm 0.00 in0.0 mm
09:30 AM 23.6°F-4.7°C 13.9°F-10.1°C 66% 4.6 mph E7.4 kmh E 5.8 mph9.3 kmh 29.48 in998.3 mb - 0.00 in0.0 mm 0.00 in0.0 mm
09:24 AM 23.3°F-4.8°C 13.6°F-10.2°C 66% 3.4 mph E5.5 kmh E 6.9 mph11.1 kmh 29.48 in998.3 mb - 0.00 in0.0 mm 0.00 in0.0 mm
09:18 AM 23.3°F-4.8°C 13.9°F-10.1°C 67% 3.4 mph ENE5.5 kmh ENE 3.4 mph5.5 kmh 29.48 in998.3 mb - 0.00 in0.0 mm 0.00 in0.0 mm
09:13 AM 23.0°F-5.0°C 13.6°F-10.2°C 67% 2.3 mph NE3.7 kmh NE 4.6 mph7.4 kmh 29.48 in998.3 mb - 0.00 in0.0 mm 0.00 in0.0 mm
09:07 AM 22.7°F-5.2°C 13.7°F-10.2°C 68% 1.1 mph NNW1.8 kmh NNW 5.8 mph9.3 kmh 29.48 in998.3 mb - 0.00 in0.0 mm 0.00 in0.0 mm
09:01 AM 22.4°F-5.3°C 13.4°F-10.3°C 68% 5.8 mph ENE9.3 kmh ENE 11.5 mph18.5 kmh 29.48 in998.3 mb - 0.00 in0.0 mm 0.00 in0.0 mm
08:56 AM 22.3°F-5.4°C 13.3°F-10.4°C 68% 5.8 mph NE9.3 kmh NE 6.9 mph11.1 kmh 29.48 in998.3 mb - 0.00 in0.0 mm 0.00 in0.0 mm
08:50 AM 22.0°F-5.6°C 13.3°F-10.4°C 69% 2.3 mph NE3.7 kmh NE 5.8 mph9.3 kmh 29.48 in998.3 mb - 0.00 in0.0 mm 0.00 in0.0 mm
08:45 AM 21.6°F-5.8°C 13.0°F-10.6°C 69% 3.4 mph NE5.5 kmh NE 9.2 mph14.8 kmh 29.48 in998.3 mb - 0.00 in0.0 mm 0.00 in0.0 mm
08:39 AM 21.1°F-6.1°C 13.1°F-10.5°C 71% 2.3 mph NNE3.7 kmh NNE 3.4 mph5.5 kmh 29.48 in998.3 mb - 0.00 in0.0 mm 0.00 in0.0 mm
08:33 AM 20.8°F-6.2°C 12.9°F-10.6°C 71% 3.4 mph NE5.5 kmh NE 3.4 mph5.5 kmh 29.48 in998.3 mb - 0.00 in0.0 mm 0.00 in0.0 mm
08:28 AM 20.5°F-6.4°C 12.6°F-10.8°C 71% 2.3 mph NE3.7 kmh NE 3.4 mph5.5 kmh 29.48 in998.3 mb - 0.00 in0.0 mm 0.00 in0.0 mm
08:22 AM 20.4°F-6.4°C 12.5°F-10.8°C 71% 2.3 mph NE3.7 kmh NE 3.4 mph5.5 kmh 29.48 in998.3 mb - 0.00 in0.0 mm 0.00 in0.0 mm
08:16 AM 20.0°F-6.7°C 12.5°F-10.8°C 72% 2.3 mph NNE3.7 kmh NNE 3.4 mph5.5 kmh 29.47 in998.0 mb - 0.00 in0.0 mm 0.00 in0.0 mm
08:11 AM 20.0°F-6.7°C 12.4°F-10.9°C 72% 3.4 mph E5.5 kmh E 6.9 mph11.1 kmh 29.47 in998.0 mb - 0.00 in0.0 mm 0.00 in0.0 mm
08:05 AM 19.7°F-6.8°C 12.4°F-10.9°C 73% 2.3 mph ENE3.7 kmh ENE 3.4 mph5.5 kmh 29.47 in998.0 mb - 0.00 in0.0 mm 0.00 in0.0 mm
08:00 AM 19.7°F-6.8°C 12.4°F-10.9°C 73% 2.3 mph NE3.7 kmh NE 8.0 mph12.9 kmh 29.47 in998.0 mb - 0.00 in0.0 mm 0.00 in0.0 mm
07:54 AM 19.8°F-6.8°C 12.5°F-10.8°C 73% 3.4 mph N5.5 kmh N 9.2 mph14.8 kmh 29.47 in998.0 mb - 0.00 in0.0 mm 0.00 in0.0 mm
07:48 AM 19.8°F-6.8°C 12.5°F-10.8°C 73% 4.6 mph NNE7.4 kmh NNE 9.2 mph14.8 kmh 29.47 in998.0 mb - 0.00 in0.0 mm 0.00 in0.0 mm
07:43 AM 19.9°F-6.7°C 12.6°F-10.8°C 73% 3.4 mph ENE5.5 kmh ENE 5.8 mph9.3 kmh 29.47 in998.0 mb - 0.00 in0.0 mm 0.00 in0.0 mm
07:37 AM 19.9°F-6.7°C 12.7°F-10.7°C 73% 2.3 mph NE3.7 kmh NE 3.4 mph5.5 kmh 29.47 in998.0 mb - 0.00 in0.0 mm 0.00 in0.0 mm
07:31 AM 20.1°F-6.6°C 12.8°F-10.7°C 73% 4.6 mph ENE7.4 kmh ENE 5.8 mph9.3 kmh 29.47 in998.0 mb - 0.00 in0.0 mm 0.00 in0.0 mm
07:26 AM 20.1°F-6.6°C 13.1°F-10.5°C 74% 2.3 mph ENE3.7 kmh ENE 4.6 mph7.4 kmh 29.47 in998.0 mb - 0.00 in0.0 mm 0.00 in0.0 mm
07:20 AM 20.1°F-6.6°C 13.2°F-10.4°C 74% 1.1 mph E1.8 kmh E 3.4 mph5.5 kmh 29.47 in998.0 mb - 0.00 in0.0 mm 0.00 in0.0 mm
07:15 AM 20.1°F-6.6°C 13.1°F-10.5°C 74% 2.3 mph NE3.7 kmh NE 4.6 mph7.4 kmh 29.47 in998.0 mb - 0.00 in0.0 mm 0.00 in0.0 mm
07:09 AM 20.2°F-6.6°C 13.5°F-10.3°C 75% 1.1 mph NNW1.8 kmh NNW 3.4 mph5.5 kmh 29.47 in998.0 mb - 0.00 in0.0 mm 0.00 in0.0 mm
07:03 AM 20.2°F-6.6°C 13.5°F-10.3°C 75% 2.3 mph NE3.7 kmh NE 3.4 mph5.5 kmh 29.47 in998.0 mb - 0.00 in0.0 mm 0.00 in0.0 mm
06:58 AM 20.2°F-6.6°C 13.5°F-10.3°C 75% 2.3 mph NE3.7 kmh NE 8.0 mph12.9 kmh 29.47 in998.0 mb - 0.00 in0.0 mm 0.00 in0.0 mm
06:52 AM 20.2°F-6.6°C 13.8°F-10.1°C 76% 2.3 mph ENE3.7 kmh ENE 5.8 mph9.3 kmh 29.47 in998.0 mb - 0.00 in0.0 mm 0.00 in0.0 mm
06:46 AM 20.4°F-6.4°C 14.0°F-10.0°C 76% 2.3 mph N3.7 kmh N 3.4 mph5.5 kmh 29.47 in998.0 mb - 0.00 in0.0 mm 0.00 in0.0 mm
06:41 AM 20.6°F-6.3°C 14.2°F-9.9°C 76% 1.1 mph NNW1.8 kmh NNW 3.4 mph5.5 kmh 29.47 in998.0 mb - 0.00 in0.0 mm 0.00 in0.0 mm
06:35 AM 20.6°F-6.3°C 14.2°F-9.9°C 76% 2.3 mph NE3.7 kmh NE 6.9 mph11.1 kmh 29.47 in998.0 mb - 0.00 in0.0 mm 0.00 in0.0 mm
06:30 AM 20.7°F-6.3°C 14.3°F-9.8°C 76% 2.3 mph ENE3.7 kmh ENE 5.8 mph9.3 kmh 29.47 in998.0 mb - 0.00 in0.0 mm 0.00 in0.0 mm
06:24 AM 20.8°F-6.2°C 14.4°F-9.8°C 76% 4.6 mph ENE7.4 kmh ENE 8.0 mph12.9 kmh 29.47 in998.0 mb - 0.00 in0.0 mm 0.00 in0.0 mm
06:18 AM 20.7°F-6.3°C 14.6°F-9.7°C 77% 1.1 mph NNE1.8 kmh NNE 3.4 mph5.5 kmh 29.47 in998.0 mb - 0.00 in0.0 mm 0.00 in0.0 mm
06:13 AM 20.7°F-6.3°C 14.7°F-9.6°C 77% 2.3 mph NNE3.7 kmh NNE 6.9 mph11.1 kmh 29.46 in997.6 mb - 0.00 in0.0 mm 0.00 in0.0 mm
06:07 AM 20.8°F-6.2°C 14.7°F-9.6°C 77% 2.3 mph ENE3.7 kmh ENE 3.4 mph5.5 kmh 29.46 in997.6 mb - 0.00 in0.0 mm 0.00 in0.0 mm
06:01 AM 20.8°F-6.2°C 14.8°F-9.6°C 77% 2.3 mph NE3.7 kmh NE 10.3 mph16.6 kmh 29.46 in997.6 mb - 0.00 in0.0 mm 0.00 in0.0 mm
05:56 AM 21.0°F-6.1°C 14.9°F-9.5°C 77% 1.1 mph NNE1.8 kmh NNE 4.6 mph7.4 kmh 29.46 in997.6 mb - 0.00 in0.0 mm 0.00 in0.0 mm
05:50 AM 21.0°F-6.1°C 14.7°F-9.6°C 76% 3.4 mph NE5.5 kmh NE 9.2 mph14.8 kmh 29.46 in997.6 mb - 0.00 in0.0 mm 0.00 in0.0 mm
05:45 AM 21.2°F-6.0°C 14.8°F-9.6°C 76% 3.4 mph ENE5.5 kmh ENE 6.9 mph11.1 kmh 29.46 in997.6 mb - 0.00 in0.0 mm 0.00 in0.0 mm
05:39 AM 21.2°F-6.0°C 14.8°F-9.6°C 76% 2.3 mph NE3.7 kmh NE 4.6 mph7.4 kmh 29.46 in997.6 mb - 0.00 in0.0 mm 0.00 in0.0 mm
05:33 AM 21.3°F-5.9°C 14.9°F-9.5°C 76% 1.1 mph ENE1.8 kmh ENE 4.6 mph7.4 kmh 29.46 in997.6 mb - 0.00 in0.0 mm 0.00 in0.0 mm
05:28 AM 21.3°F-5.9°C 14.9°F-9.5°C 76% 1.1 mph NNE1.8 kmh NNE 3.4 mph5.5 kmh 29.46 in997.6 mb - 0.00 in0.0 mm 0.00 in0.0 mm
05:22 AM 21.4°F-5.9°C 15.0°F-9.4°C 76% 1.1 mph ENE1.8 kmh ENE 3.4 mph5.5 kmh 29.46 in997.6 mb - 0.00 in0.0 mm 0.00 in0.0 mm
05:16 AM 21.5°F-5.8°C 15.1°F-9.4°C 76% 2.3 mph NNE3.7 kmh NNE 6.9 mph11.1 kmh 29.45 in997.3 mb - 0.00 in0.0 mm 0.00 in0.0 mm
05:11 AM 21.6°F-5.8°C 15.2°F-9.3°C 76% 2.3 mph NE3.7 kmh NE 3.4 mph5.5 kmh 29.45 in997.3 mb - 0.00 in0.0 mm 0.00 in0.0 mm
05:05 AM 21.7°F-5.7°C 15.0°F-9.4°C 75% 2.3 mph NE3.7 kmh NE 4.6 mph7.4 kmh 29.45 in997.3 mb - 0.00 in0.0 mm 0.00 in0.0 mm
05:00 AM 21.7°F-5.7°C 15.0°F-9.4°C 75% 3.4 mph ENE5.5 kmh ENE 4.6 mph7.4 kmh 29.45 in997.3 mb - 0.00 in0.0 mm 0.00 in0.0 mm
04:54 AM 21.8°F-5.7°C 15.1°F-9.4°C 75% 1.1 mph NNE1.8 kmh NNE 6.9 mph11.1 kmh 29.45 in997.3 mb - 0.00 in0.0 mm 0.00 in0.0 mm
04:48 AM 21.8°F-5.7°C 15.0°F-9.4°C 75% 3.4 mph ENE5.5 kmh ENE 11.5 mph18.5 kmh 29.45 in997.3 mb - 0.00 in0.0 mm 0.00 in0.0 mm
04:43 AM 21.8°F-5.7°C 15.1°F-9.4°C 75% 3.4 mph NNE5.5 kmh NNE 4.6 mph7.4 kmh 29.45 in997.3 mb - 0.00 in0.0 mm 0.00 in0.0 mm
04:37 AM 21.9°F-5.6°C 14.9°F-9.5°C 74% 1.1 mph NE1.8 kmh NE 4.6 mph7.4 kmh 29.45 in997.3 mb - 0.00 in0.0 mm 0.00 in0.0 mm
04:31 AM 22.0°F-5.6°C 14.9°F-9.5°C 74% 4.6 mph NNE7.4 kmh NNE 6.9 mph11.1 kmh 29.45 in997.3 mb - 0.00 in0.0 mm 0.00 in0.0 mm
04:26 AM 22.1°F-5.5°C 15.1°F-9.4°C 74% 1.1 mph E1.8 kmh E 1.1 mph1.8 kmh 29.45 in997.3 mb - 0.00 in0.0 mm 0.00 in0.0 mm
04:20 AM 22.2°F-5.4°C 14.9°F-9.5°C 73% 2.3 mph ENE3.7 kmh ENE 3.4 mph5.5 kmh 29.45 in997.3 mb - 0.00 in0.0 mm 0.00 in0.0 mm
04:15 AM 22.3°F-5.4°C 15.0°F-9.4°C 73% 2.3 mph N3.7 kmh N 4.6 mph7.4 kmh 29.45 in997.3 mb - 0.00 in0.0 mm 0.00 in0.0 mm
04:09 AM 22.4°F-5.3°C 15.0°F-9.4°C 73% 1.1 mph ENE1.8 kmh ENE 4.6 mph7.4 kmh 29.45 in997.3 mb - 0.00 in0.0 mm 0.00 in0.0 mm
04:03 AM 22.5°F-5.3°C 15.1°F-9.4°C 73% 2.3 mph NE3.7 kmh NE 3.4 mph5.5 kmh 29.45 in997.3 mb - 0.00 in0.0 mm 0.00 in0.0 mm
03:58 AM 22.5°F-5.3°C 14.8°F-9.6°C 72% 4.6 mph ENE7.4 kmh ENE 10.3 mph16.6 kmh 29.44 in997.0 mb - 0.00 in0.0 mm 0.00 in0.0 mm
03:52 AM 22.6°F-5.2°C 14.9°F-9.5°C 72% 3.4 mph N5.5 kmh N 3.4 mph5.5 kmh 29.44 in997.0 mb - 0.00 in0.0 mm 0.00 in0.0 mm
03:46 AM 22.8°F-5.1°C 14.8°F-9.6°C 71% 3.4 mph NE5.5 kmh NE 6.9 mph11.1 kmh 29.44 in997.0 mb - 0.00 in0.0 mm 0.00 in0.0 mm
03:41 AM 22.8°F-5.1°C 14.8°F-9.6°C 71% 3.4 mph E5.5 kmh E 6.9 mph11.1 kmh 29.44 in997.0 mb - 0.00 in0.0 mm 0.00 in0.0 mm
03:35 AM 22.9°F-5.1°C 14.9°F-9.5°C 71% Calm Calm 1.1 mph1.8 kmh 29.44 in997.0 mb - 0.00 in0.0 mm 0.00 in0.0 mm
03:30 AM 23.0°F-5.0°C 15.0°F-9.4°C 71% 4.6 mph ENE7.4 kmh ENE 8.0 mph12.9 kmh 29.44 in997.0 mb - 0.00 in0.0 mm 0.00 in0.0 mm
03:24 AM 23.0°F-5.0°C 14.7°F-9.6°C 70% 2.3 mph NNE3.7 kmh NNE 5.8 mph9.3 kmh 29.44 in997.0 mb - 0.00 in0.0 mm 0.00 in0.0 mm
03:18 AM 23.1°F-4.9°C 14.8°F-9.6°C 70% 2.3 mph NE3.7 kmh NE 6.9 mph11.1 kmh 29.44 in997.0 mb - 0.00 in0.0 mm 0.00 in0.0 mm
03:13 AM 23.2°F-4.9°C 14.8°F-9.6°C 70% 4.6 mph NNE7.4 kmh NNE 9.2 mph14.8 kmh 29.44 in997.0 mb - 0.00 in0.0 mm 0.00 in0.0 mm
03:07 AM 23.2°F-4.9°C 14.8°F-9.6°C 70% 2.3 mph ENE3.7 kmh ENE 10.3 mph16.6 kmh 29.44 in997.0 mb - 0.00 in0.0 mm 0.00 in0.0 mm
03:01 AM 23.4°F-4.8°C 14.7°F-9.6°C 69% 1.1 mph ENE1.8 kmh ENE 4.6 mph7.4 kmh 29.44 in997.0 mb - 0.00 in0.0 mm 0.00 in0.0 mm
02:56 AM 23.4°F-4.8°C 14.8°F-9.6°C 69% 1.1 mph NW1.8 kmh NW 2.3 mph3.7 kmh 29.44 in997.0 mb - 0.00 in0.0 mm 0.00 in0.0 mm
02:50 AM 23.4°F-4.8°C 14.8°F-9.6°C 69% 4.6 mph ENE7.4 kmh ENE 8.0 mph12.9 kmh 29.44 in997.0 mb - 0.00 in0.0 mm 0.00 in0.0 mm
02:45 AM 23.4°F-4.8°C 14.7°F-9.6°C 69% 2.3 mph ENE3.7 kmh ENE 8.0 mph12.9 kmh 29.43 in996.6 mb - 0.00 in0.0 mm 0.00 in0.0 mm
02:39 AM 23.7°F-4.6°C 14.7°F-9.6°C 68% 2.3 mph ENE3.7 kmh ENE 3.4 mph5.5 kmh 29.44 in997.0 mb - 0.00 in0.0 mm 0.00 in0.0 mm
02:33 AM 23.8°F-4.6°C 14.8°F-9.6°C 68% 1.1 mph N1.8 kmh N 1.1 mph1.8 kmh 29.44 in997.0 mb - 0.00 in0.0 mm 0.00 in0.0 mm
02:28 AM 24.0°F-4.4°C 14.6°F-9.7°C 67% 2.3 mph ENE3.7 kmh ENE 2.3 mph3.7 kmh 29.43 in996.6 mb - 0.00 in0.0 mm 0.00 in0.0 mm
02:22 AM 24.2°F-4.3°C 14.8°F-9.6°C 67% 2.3 mph NE3.7 kmh NE 6.9 mph11.1 kmh 29.43 in996.6 mb - 0.00 in0.0 mm 0.00 in0.0 mm
02:16 AM 24.1°F-4.4°C 14.7°F-9.6°C 67% 2.3 mph ENE3.7 kmh ENE 5.8 mph9.3 kmh 29.43 in996.6 mb - 0.00 in0.0 mm 0.00 in0.0 mm
02:11 AM 24.3°F-4.3°C 14.6°F-9.7°C 66% 3.4 mph ENE5.5 kmh ENE 4.6 mph7.4 kmh 29.43 in996.6 mb - 0.00 in0.0 mm 0.00 in0.0 mm
02:05 AM 24.4°F-4.2°C 14.7°F-9.6°C 66% 3.4 mph NE5.5 kmh NE 5.8 mph9.3 kmh 29.43 in996.6 mb - 0.00 in0.0 mm 0.00 in0.0 mm
02:00 AM 24.4°F-4.2°C 14.7°F-9.6°C 66% 1.1 mph NE1.8 kmh NE 2.3 mph3.7 kmh 29.43 in996.6 mb - 0.00 in0.0 mm 0.00 in0.0 mm
01:54 AM 24.6°F-4.1°C 14.5°F-9.7°C 65% 1.1 mph NE1.8 kmh NE 2.3 mph3.7 kmh 29.43 in996.6 mb - 0.00 in0.0 mm 0.00 in0.0 mm
01:48 AM 24.6°F-4.1°C 14.5°F-9.7°C 65% 2.3 mph ENE3.7 kmh ENE 4.6 mph7.4 kmh 29.43 in996.6 mb - 0.00 in0.0 mm 0.00 in0.0 mm
01:43 AM 25.0°F-3.9°C 14.9°F-9.5°C 65% 2.3 mph NE3.7 kmh NE 2.3 mph3.7 kmh 29.43 in996.6 mb - 0.00 in0.0 mm 0.00 in0.0 mm
01:37 AM 25.0°F-3.9°C 14.9°F-9.5°C 65% 3.4 mph NE5.5 kmh NE 8.0 mph12.9 kmh 29.43 in996.6 mb - 0.00 in0.0 mm 0.00 in0.0 mm
01:31 AM 25.3°F-3.7°C 15.1°F-9.4°C 65% Calm Calm 1.1 mph1.8 kmh 29.43 in996.6 mb - 0.00 in0.0 mm 0.00 in0.0 mm
01:26 AM 25.3°F-3.7°C 14.8°F-9.6°C 64% 2.3 mph NE3.7 kmh NE 3.4 mph5.5 kmh 29.42 in996.3 mb - 0.00 in0.0 mm 0.00 in0.0 mm
01:20 AM 25.5°F-3.6°C 15.0°F-9.4°C 64% 2.3 mph NNE3.7 kmh NNE 4.6 mph7.4 kmh 29.43 in996.6 mb - 0.00 in0.0 mm 0.00 in0.0 mm
01:15 AM 25.4°F-3.7°C 15.3°F-9.3°C 65% 2.3 mph ENE3.7 kmh ENE 4.6 mph7.4 kmh 29.43 in996.6 mb - 0.00 in0.0 mm 0.00 in0.0 mm
01:09 AM 25.5°F-3.6°C 15.4°F-9.2°C 65% 2.3 mph NE3.7 kmh NE 3.4 mph5.5 kmh 29.43 in996.6 mb - 0.00 in0.0 mm 0.00 in0.0 mm
01:03 AM 25.7°F-3.5°C 15.6°F-9.1°C 65% 3.4 mph ENE5.5 kmh ENE 4.6 mph7.4 kmh 29.43 in996.6 mb - 0.00 in0.0 mm 0.00 in0.0 mm
12:58 AM 25.8°F-3.4°C 15.6°F-9.1°C 65% 2.3 mph ENE3.7 kmh ENE 5.8 mph9.3 kmh 29.43 in996.6 mb - 0.00 in0.0 mm 0.00 in0.0 mm
12:52 AM 26.0°F-3.3°C 15.8°F-9.0°C 65% 4.6 mph ENE7.4 kmh ENE 6.9 mph11.1 kmh 29.43 in996.6 mb - 0.00 in0.0 mm 0.00 in0.0 mm
12:46 AM 26.1°F-3.3°C 15.9°F-8.9°C 65% 1.1 mph NE1.8 kmh NE 4.6 mph7.4 kmh 29.43 in996.6 mb - 0.00 in0.0 mm 0.00 in0.0 mm
12:41 AM 26.2°F-3.2°C 16.0°F-8.9°C 65% 3.4 mph ENE5.5 kmh ENE 6.9 mph11.1 kmh 29.43 in996.6 mb - 0.00 in0.0 mm 0.00 in0.0 mm
12:35 AM 26.1°F-3.3°C 16.3°F-8.7°C 66% 1.1 mph N1.8 kmh N 2.3 mph3.7 kmh 29.43 in996.6 mb - 0.00 in0.0 mm 0.00 in0.0 mm
12:30 AM 26.2°F-3.2°C 16.4°F-8.7°C 66% 3.4 mph N5.5 kmh N 6.9 mph11.1 kmh 29.43 in996.6 mb - 0.00 in0.0 mm 0.00 in0.0 mm
12:24 AM 26.3°F-3.2°C 16.8°F-8.4°C 67% 3.4 mph ENE5.5 kmh ENE 5.8 mph9.3 kmh 29.43 in996.6 mb - 0.00 in0.0 mm 0.00 in0.0 mm
12:18 AM 26.2°F-3.2°C 16.7°F-8.5°C 67% 3.4 mph E5.5 kmh E 11.5 mph18.5 kmh 29.43 in996.6 mb - 0.00 in0.0 mm 0.00 in0.0 mm
12:13 AM 26.3°F-3.2°C 16.8°F-8.4°C 67% 2.3 mph ENE3.7 kmh ENE 4.6 mph7.4 kmh 29.43 in996.6 mb - 0.00 in0.0 mm 0.00 in0.0 mm
12:07 AM 26.4°F-3.1°C 16.9°F-8.4°C 67% 2.3 mph ENE3.7 kmh ENE 4.6 mph7.4 kmh 29.43 in996.6 mb - 0.00 in0.0 mm 0.00 in0.0 mm
12:01 AM 26.6°F-3.0°C 17.1°F-8.3°C 67% 2.3 mph NNE3.7 kmh NNE 5.8 mph9.3 kmh 29.42 in996.3 mb - 0.00 in0.0 mm 0.00 in0.0 mm